sensor_id;sensor_type;location;lat;lon;timestamp;P1;durP1;ratioP1;P2;durP2;ratioP2
24799;SDS011;12897;50.812;4.430;2023-04-03T00:01:29;20.97;;;11.18;;
24799;SDS011;12897;50.812;4.430;2023-04-03T00:03:57;19.80;;;11.18;;
24799;SDS011;12897;50.812;4.430;2023-04-03T00:06:25;22.05;;;11.65;;
24799;SDS011;12897;50.812;4.430;2023-04-03T00:08:53;23.77;;;11.95;;
24799;SDS011;12897;50.812;4.430;2023-04-03T00:11:21;25.25;;;13.05;;
24799;SDS011;12897;50.812;4.430;2023-04-03T00:13:48;21.12;;;12.35;;
24799;SDS011;12897;50.812;4.430;2023-04-03T00:16:16;19.65;;;12.05;;
24799;SDS011;12897;50.812;4.430;2023-04-03T00:18:44;23.62;;;12.45;;
24799;SDS011;12897;50.812;4.430;2023-04-03T00:21:12;26.73;;;12.55;;
24799;SDS011;12897;50.812;4.430;2023-04-03T00:23:41;20.00;;;12.90;;
24799;SDS011;12897;50.812;4.430;2023-04-03T00:26:09;26.10;;;13.45;;
24799;SDS011;12897;50.812;4.430;2023-04-03T00:28:37;24.05;;;13.10;;
24799;SDS011;12897;50.812;4.430;2023-04-03T00:31:05;26.70;;;13.53;;
24799;SDS011;12897;50.812;4.430;2023-04-03T00:36:19;21.52;;;12.73;;
24799;SDS011;12897;50.812;4.430;2023-04-03T00:38:47;21.25;;;12.88;;
24799;SDS011;12897;50.812;4.430;2023-04-03T00:41:14;21.40;;;12.18;;
24799;SDS011;12897;50.812;4.430;2023-04-03T00:43:42;20.65;;;12.70;;
24799;SDS011;12897;50.812;4.430;2023-04-03T00:46:10;19.17;;;12.20;;
24799;SDS011;12897;50.812;4.430;2023-04-03T00:48:45;21.12;;;12.35;;
24799;SDS011;12897;50.812;4.430;2023-04-03T00:51:14;26.27;;;12.85;;
24799;SDS011;12897;50.812;4.430;2023-04-03T00:53:54;18.90;;;12.07;;
24799;SDS011;12897;50.812;4.430;2023-04-03T00:56:24;23.90;;;11.75;;
24799;SDS011;12897;50.812;4.430;2023-04-03T00:59:08;20.68;;;12.63;;
24799;SDS011;12897;50.812;4.430;2023-04-03T01:01:36;23.67;;;13.00;;
24799;SDS011;12897;50.812;4.430;2023-04-03T01:04:05;21.57;;;13.28;;
24799;SDS011;12897;50.812;4.430;2023-04-03T01:06:36;24.75;;;12.20;;
24799;SDS011;12897;50.812;4.430;2023-04-03T01:09:04;20.12;;;12.43;;
24799;SDS011;12897;50.812;4.430;2023-04-03T01:11:32;25.35;;;12.95;;
24799;SDS011;12897;50.812;4.430;2023-04-03T01:14:00;24.75;;;12.90;;
24799;SDS011;12897;50.812;4.430;2023-04-03T01:16:27;23.05;;;12.43;;
24799;SDS011;12897;50.812;4.430;2023-04-03T01:18:57;20.75;;;12.23;;
24799;SDS011;12897;50.812;4.430;2023-04-03T01:24:32;19.37;;;11.80;;
24799;SDS011;12897;50.812;4.430;2023-04-03T01:27:03;24.50;;;11.80;;
24799;SDS011;12897;50.812;4.430;2023-04-03T01:31:59;20.17;;;11.38;;
24799;SDS011;12897;50.812;4.430;2023-04-03T01:34:29;23.25;;;11.57;;
24799;SDS011;12897;50.812;4.430;2023-04-03T01:39:44;25.62;;;11.85;;
24799;SDS011;12897;50.812;4.430;2023-04-03T01:42:11;21.45;;;11.28;;
24799;SDS011;12897;50.812;4.430;2023-04-03T01:44:39;21.60;;;12.07;;
24799;SDS011;12897;50.812;4.430;2023-04-03T01:47:06;20.95;;;12.20;;
24799;SDS011;12897;50.812;4.430;2023-04-03T01:49:34;21.02;;;12.60;;
24799;SDS011;12897;50.812;4.430;2023-04-03T01:52:01;21.62;;;12.33;;
24799;SDS011;12897;50.812;4.430;2023-04-03T01:54:29;20.00;;;11.88;;
24799;SDS011;12897;50.812;4.430;2023-04-03T01:56:56;23.40;;;12.10;;
24799;SDS011;12897;50.812;4.430;2023-04-03T01:59:24;22.10;;;12.60;;
24799;SDS011;12897;50.812;4.430;2023-04-03T02:01:51;21.02;;;12.33;;
24799;SDS011;12897;50.812;4.430;2023-04-03T02:04:19;22.40;;;11.40;;
24799;SDS011;12897;50.812;4.430;2023-04-03T02:06:47;26.62;;;12.55;;
24799;SDS011;12897;50.812;4.430;2023-04-03T02:09:15;19.50;;;11.70;;
24799;SDS011;12897;50.812;4.430;2023-04-03T02:11:42;24.87;;;11.38;;
24799;SDS011;12897;50.812;4.430;2023-04-03T02:14:10;19.73;;;11.35;;
24799;SDS011;12897;50.812;4.430;2023-04-03T02:16:37;20.68;;;10.85;;
24799;SDS011;12897;50.812;4.430;2023-04-03T02:19:05;24.87;;;10.90;;
24799;SDS011;12897;50.812;4.430;2023-04-03T02:21:32;18.40;;;11.50;;
24799;SDS011;12897;50.812;4.430;2023-04-03T02:24:00;21.93;;;12.05;;
24799;SDS011;12897;50.812;4.430;2023-04-03T02:26:27;23.10;;;11.60;;
24799;SDS011;12897;50.812;4.430;2023-04-03T02:28:55;22.00;;;11.15;;
24799;SDS011;12897;50.812;4.430;2023-04-03T02:31:23;19.07;;;10.72;;
24799;SDS011;12897;50.812;4.430;2023-04-03T02:33:50;25.57;;;12.00;;
24799;SDS011;12897;50.812;4.430;2023-04-03T02:36:18;22.52;;;11.03;;
24799;SDS011;12897;50.812;4.430;2023-04-03T02:38:45;18.60;;;10.93;;
24799;SDS011;12897;50.812;4.430;2023-04-03T02:41:14;23.45;;;12.28;;
24799;SDS011;12897;50.812;4.430;2023-04-03T02:43:41;20.08;;;11.57;;
24799;SDS011;12897;50.812;4.430;2023-04-03T02:46:10;24.98;;;12.15;;
24799;SDS011;12897;50.812;4.430;2023-04-03T02:48:39;22.30;;;11.43;;
24799;SDS011;12897;50.812;4.430;2023-04-03T02:51:06;17.20;;;10.75;;
24799;SDS011;12897;50.812;4.430;2023-04-03T02:53:34;21.55;;;11.20;;
24799;SDS011;12897;50.812;4.430;2023-04-03T02:56:01;22.67;;;12.30;;
24799;SDS011;12897;50.812;4.430;2023-04-03T02:58:29;18.77;;;11.33;;
24799;SDS011;12897;50.812;4.430;2023-04-03T03:00:56;20.40;;;11.43;;
24799;SDS011;12897;50.812;4.430;2023-04-03T03:03:24;20.12;;;12.10;;
24799;SDS011;12897;50.812;4.430;2023-04-03T03:06:15;20.88;;;11.73;;
24799;SDS011;12897;50.812;4.430;2023-04-03T03:08:26;21.48;;;11.43;;
24799;SDS011;12897;50.812;4.430;2023-04-03T03:10:53;19.67;;;11.90;;
24799;SDS011;12897;50.812;4.430;2023-04-03T03:13:21;23.75;;;12.53;;
24799;SDS011;12897;50.812;4.430;2023-04-03T03:15:48;21.05;;;12.07;;
24799;SDS011;12897;50.812;4.430;2023-04-03T03:18:16;26.42;;;12.20;;
24799;SDS011;12897;50.812;4.430;2023-04-03T03:20:43;18.35;;;10.55;;
24799;SDS011;12897;50.812;4.430;2023-04-03T03:23:11;20.68;;;11.28;;
24799;SDS011;12897;50.812;4.430;2023-04-03T03:25:39;19.37;;;11.57;;
24799;SDS011;12897;50.812;4.430;2023-04-03T03:28:07;19.82;;;11.45;;
24799;SDS011;12897;50.812;4.430;2023-04-03T03:30:35;23.27;;;11.55;;
24799;SDS011;12897;50.812;4.430;2023-04-03T03:33:02;23.15;;;12.20;;
24799;SDS011;12897;50.812;4.430;2023-04-03T03:35:30;20.62;;;12.53;;
24799;SDS011;12897;50.812;4.430;2023-04-03T03:37:57;25.65;;;11.65;;
24799;SDS011;12897;50.812;4.430;2023-04-03T03:40:25;23.52;;;11.53;;
24799;SDS011;12897;50.812;4.430;2023-04-03T03:42:52;19.80;;;11.25;;
24799;SDS011;12897;50.812;4.430;2023-04-03T03:45:20;24.18;;;11.70;;
24799;SDS011;12897;50.812;4.430;2023-04-03T03:47:47;18.48;;;11.88;;
24799;SDS011;12897;50.812;4.430;2023-04-03T03:50:15;21.35;;;11.48;;
24799;SDS011;12897;50.812;4.430;2023-04-03T03:52:42;21.15;;;10.80;;
24799;SDS011;12897;50.812;4.430;2023-04-03T03:55:10;21.80;;;12.80;;
24799;SDS011;12897;50.812;4.430;2023-04-03T03:57:38;19.32;;;11.45;;
24799;SDS011;12897;50.812;4.430;2023-04-03T04:00:07;18.48;;;11.22;;
24799;SDS011;12897;50.812;4.430;2023-04-03T04:02:35;19.90;;;11.95;;
24799;SDS011;12897;50.812;4.430;2023-04-03T04:05:04;19.98;;;11.12;;
24799;SDS011;12897;50.812;4.430;2023-04-03T04:07:31;18.80;;;10.93;;
24799;SDS011;12897;50.812;4.430;2023-04-03T04:09:59;19.17;;;11.18;;
24799;SDS011;12897;50.812;4.430;2023-04-03T04:12:27;19.73;;;11.48;;
24799;SDS011;12897;50.812;4.430;2023-04-03T04:14:54;23.77;;;11.55;;
24799;SDS011;12897;50.812;4.430;2023-04-03T04:17:22;17.87;;;10.70;;
24799;SDS011;12897;50.812;4.430;2023-04-03T04:19:51;22.62;;;12.23;;
24799;SDS011;12897;50.812;4.430;2023-04-03T04:22:19;21.33;;;11.85;;
24799;SDS011;12897;50.812;4.430;2023-04-03T04:24:47;18.35;;;11.50;;
24799;SDS011;12897;50.812;4.430;2023-04-03T04:27:14;21.35;;;11.55;;
24799;SDS011;12897;50.812;4.430;2023-04-03T04:29:42;17.85;;;11.05;;
24799;SDS011;12897;50.812;4.430;2023-04-03T04:32:10;20.43;;;11.57;;
24799;SDS011;12897;50.812;4.430;2023-04-03T04:34:37;30.27;;;11.63;;
24799;SDS011;12897;50.812;4.430;2023-04-03T04:37:05;19.75;;;10.90;;
24799;SDS011;12897;50.812;4.430;2023-04-03T04:39:32;20.00;;;11.50;;
24799;SDS011;12897;50.812;4.430;2023-04-03T04:42:00;24.45;;;11.88;;
24799;SDS011;12897;50.812;4.430;2023-04-03T04:44:28;22.35;;;12.07;;
24799;SDS011;12897;50.812;4.430;2023-04-03T04:46:55;19.82;;;11.12;;
24799;SDS011;12897;50.812;4.430;2023-04-03T04:49:23;24.60;;;11.08;;
24799;SDS011;12897;50.812;4.430;2023-04-03T04:51:50;15.65;;;10.32;;
24799;SDS011;12897;50.812;4.430;2023-04-03T04:54:21;19.85;;;12.23;;
24799;SDS011;12897;50.812;4.430;2023-04-03T04:56:48;22.02;;;11.75;;
24799;SDS011;12897;50.812;4.430;2023-04-03T04:59:16;19.55;;;11.03;;
24799;SDS011;12897;50.812;4.430;2023-04-03T05:01:44;23.57;;;11.50;;
24799;SDS011;12897;50.812;4.430;2023-04-03T05:04:11;16.07;;;10.93;;
24799;SDS011;12897;50.812;4.430;2023-04-03T05:06:39;22.15;;;11.28;;
24799;SDS011;12897;50.812;4.430;2023-04-03T05:09:07;20.65;;;11.55;;
24799;SDS011;12897;50.812;4.430;2023-04-03T05:11:35;20.37;;;11.05;;
24799;SDS011;12897;50.812;4.430;2023-04-03T05:14:03;19.20;;;11.48;;
24799;SDS011;12897;50.812;4.430;2023-04-03T05:16:33;22.90;;;11.60;;
24799;SDS011;12897;50.812;4.430;2023-04-03T05:19:01;23.52;;;10.95;;
24799;SDS011;12897;50.812;4.430;2023-04-03T05:21:30;21.05;;;12.15;;
24799;SDS011;12897;50.812;4.430;2023-04-03T05:23:58;17.75;;;11.50;;
24799;SDS011;12897;50.812;4.430;2023-04-03T05:26:28;20.45;;;11.63;;
24799;SDS011;12897;50.812;4.430;2023-04-03T05:28:59;23.18;;;11.70;;
24799;SDS011;12897;50.812;4.430;2023-04-03T05:31:26;18.35;;;11.28;;
24799;SDS011;12897;50.812;4.430;2023-04-03T05:33:55;21.27;;;11.88;;
24799;SDS011;12897;50.812;4.430;2023-04-03T05:36:23;20.80;;;11.10;;
24799;SDS011;12897;50.812;4.430;2023-04-03T05:38:51;18.87;;;11.80;;
24799;SDS011;12897;50.812;4.430;2023-04-03T05:41:19;23.12;;;12.45;;
24799;SDS011;12897;50.812;4.430;2023-04-03T05:43:46;25.52;;;12.90;;
24799;SDS011;12897;50.812;4.430;2023-04-03T05:46:15;22.85;;;12.10;;
24799;SDS011;12897;50.812;4.430;2023-04-03T05:48:44;18.27;;;11.15;;
24799;SDS011;12897;50.812;4.430;2023-04-03T05:51:17;21.02;;;12.13;;
24799;SDS011;12897;50.812;4.430;2023-04-03T05:53:43;25.08;;;11.50;;
24799;SDS011;12897;50.812;4.430;2023-04-03T05:56:11;27.90;;;12.15;;
24799;SDS011;12897;50.812;4.430;2023-04-03T05:58:39;24.82;;;12.23;;
24799;SDS011;12897;50.812;4.430;2023-04-03T06:01:07;25.43;;;12.18;;
24799;SDS011;12897;50.812;4.430;2023-04-03T06:03:35;21.80;;;10.88;;
24799;SDS011;12897;50.812;4.430;2023-04-03T06:06:03;24.07;;;11.80;;
24799;SDS011;12897;50.812;4.430;2023-04-03T06:08:31;21.93;;;12.28;;
24799;SDS011;12897;50.812;4.430;2023-04-03T06:10:59;25.72;;;13.15;;
24799;SDS011;12897;50.812;4.430;2023-04-03T06:13:28;27.77;;;16.17;;
24799;SDS011;12897;50.812;4.430;2023-04-03T06:15:55;29.48;;;15.48;;
24799;SDS011;12897;50.812;4.430;2023-04-03T06:18:23;22.58;;;13.88;;
24799;SDS011;12897;50.812;4.430;2023-04-03T06:20:50;25.08;;;12.30;;
24799;SDS011;12897;50.812;4.430;2023-04-03T06:23:18;29.50;;;12.88;;
24799;SDS011;12897;50.812;4.430;2023-04-03T06:25:45;22.87;;;11.75;;
24799;SDS011;12897;50.812;4.430;2023-04-03T06:28:13;26.62;;;12.30;;
24799;SDS011;12897;50.812;4.430;2023-04-03T06:30:41;22.58;;;11.88;;
24799;SDS011;12897;50.812;4.430;2023-04-03T06:33:08;23.40;;;11.45;;
24799;SDS011;12897;50.812;4.430;2023-04-03T06:35:36;28.05;;;10.38;;
24799;SDS011;12897;50.812;4.430;2023-04-03T06:38:04;20.62;;;11.33;;
24799;SDS011;12897;50.812;4.430;2023-04-03T06:40:33;23.63;;;11.67;;
24799;SDS011;12897;50.812;4.430;2023-04-03T06:43:01;30.82;;;12.40;;
24799;SDS011;12897;50.812;4.430;2023-04-03T06:45:28;23.50;;;12.20;;
24799;SDS011;12897;50.812;4.430;2023-04-03T06:50:43;26.50;;;13.48;;
24799;SDS011;12897;50.812;4.430;2023-04-03T06:53:11;21.35;;;12.30;;
24799;SDS011;12897;50.812;4.430;2023-04-03T06:55:39;20.35;;;13.78;;
24799;SDS011;12897;50.812;4.430;2023-04-03T06:58:07;23.52;;;12.55;;
24799;SDS011;12897;50.812;4.430;2023-04-03T07:00:36;20.60;;;12.30;;
24799;SDS011;12897;50.812;4.430;2023-04-03T07:03:03;21.75;;;12.00;;
24799;SDS011;12897;50.812;4.430;2023-04-03T07:05:32;22.82;;;12.63;;
24799;SDS011;12897;50.812;4.430;2023-04-03T07:07:59;22.30;;;12.70;;
24799;SDS011;12897;50.812;4.430;2023-04-03T07:10:28;25.00;;;12.20;;
24799;SDS011;12897;50.812;4.430;2023-04-03T07:12:56;18.52;;;11.30;;
24799;SDS011;12897;50.812;4.430;2023-04-03T07:15:25;22.40;;;12.68;;
24799;SDS011;12897;50.812;4.430;2023-04-03T07:17:52;21.05;;;11.85;;
24799;SDS011;12897;50.812;4.430;2023-04-03T07:20:20;20.90;;;12.00;;
24799;SDS011;12897;50.812;4.430;2023-04-03T07:22:47;19.55;;;12.05;;
24799;SDS011;12897;50.812;4.430;2023-04-03T07:25:15;21.70;;;12.50;;
24799;SDS011;12897;50.812;4.430;2023-04-03T07:27:42;18.10;;;11.12;;
24799;SDS011;12897;50.812;4.430;2023-04-03T07:30:10;18.73;;;11.80;;
24799;SDS011;12897;50.812;4.430;2023-04-03T07:32:39;19.13;;;10.80;;
24799;SDS011;12897;50.812;4.430;2023-04-03T07:35:07;24.63;;;11.48;;
24799;SDS011;12897;50.812;4.430;2023-04-03T07:37:35;16.17;;;10.72;;
24799;SDS011;12897;50.812;4.430;2023-04-03T07:40:02;21.90;;;10.15;;
24799;SDS011;12897;50.812;4.430;2023-04-03T07:42:32;21.48;;;10.43;;
24799;SDS011;12897;50.812;4.430;2023-04-03T07:45:03;17.57;;;10.10;;
24799;SDS011;12897;50.812;4.430;2023-04-03T07:47:33;16.57;;;10.48;;
24799;SDS011;12897;50.812;4.430;2023-04-03T07:50:02;15.95;;;9.58;;
24799;SDS011;12897;50.812;4.430;2023-04-03T07:52:30;16.50;;;9.90;;
24799;SDS011;12897;50.812;4.430;2023-04-03T07:54:59;17.55;;;9.85;;
24799;SDS011;12897;50.812;4.430;2023-04-03T07:57:26;11.60;;;8.40;;
24799;SDS011;12897;50.812;4.430;2023-04-03T07:59:55;18.42;;;9.23;;
24799;SDS011;12897;50.812;4.430;2023-04-03T08:02:22;14.78;;;8.80;;
24799;SDS011;12897;50.812;4.430;2023-04-03T08:04:50;17.57;;;8.48;;
24799;SDS011;12897;50.812;4.430;2023-04-03T08:07:18;17.32;;;8.30;;
24799;SDS011;12897;50.812;4.430;2023-04-03T08:09:46;14.73;;;8.25;;
24799;SDS011;12897;50.812;4.430;2023-04-03T08:12:14;13.98;;;8.23;;
24799;SDS011;12897;50.812;4.430;2023-04-03T08:14:42;18.02;;;8.48;;
24799;SDS011;12897;50.812;4.430;2023-04-03T08:17:10;17.67;;;7.85;;
24799;SDS011;12897;50.812;4.430;2023-04-03T08:19:39;18.12;;;7.83;;
24799;SDS011;12897;50.812;4.430;2023-04-03T08:22:07;11.53;;;7.37;;
24799;SDS011;12897;50.812;4.430;2023-04-03T08:24:35;15.10;;;7.42;;
24799;SDS011;12897;50.812;4.430;2023-04-03T08:27:12;11.80;;;6.90;;
24799;SDS011;12897;50.812;4.430;2023-04-03T08:29:51;16.07;;;7.40;;
24799;SDS011;12897;50.812;4.430;2023-04-03T08:32:18;14.17;;;7.63;;
24799;SDS011;12897;50.812;4.430;2023-04-03T08:34:46;14.98;;;6.83;;
24799;SDS011;12897;50.812;4.430;2023-04-03T08:37:13;12.58;;;7.10;;
24799;SDS011;12897;50.812;4.430;2023-04-03T08:39:42;13.53;;;7.00;;
24799;SDS011;12897;50.812;4.430;2023-04-03T08:42:14;14.55;;;6.47;;
24799;SDS011;12897;50.812;4.430;2023-04-03T08:45:01;14.87;;;7.72;;
24799;SDS011;12897;50.812;4.430;2023-04-03T08:50:04;15.58;;;7.10;;
24799;SDS011;12897;50.812;4.430;2023-04-03T08:52:38;14.28;;;7.37;;
24799;SDS011;12897;50.812;4.430;2023-04-03T08:55:24;15.03;;;6.55;;
24799;SDS011;12897;50.812;4.430;2023-04-03T08:58:09;12.70;;;7.10;;
24799;SDS011;12897;50.812;4.430;2023-04-03T09:03:30;10.60;;;5.35;;
24799;SDS011;12897;50.812;4.430;2023-04-03T09:06:06;11.97;;;5.20;;
24799;SDS011;12897;50.812;4.430;2023-04-03T09:08:37;17.37;;;5.62;;
24799;SDS011;12897;50.812;4.430;2023-04-03T09:16:25;12.88;;;5.00;;
24799;SDS011;12897;50.812;4.430;2023-04-03T09:19:02;9.98;;;4.78;;
24799;SDS011;12897;50.812;4.430;2023-04-03T09:21:32;13.45;;;4.70;;
24799;SDS011;12897;50.812;4.430;2023-04-03T09:24:02;13.60;;;4.87;;
24799;SDS011;12897;50.812;4.430;2023-04-03T09:26:39;10.13;;;4.60;;
24799;SDS011;12897;50.812;4.430;2023-04-03T09:29:12;10.65;;;3.92;;
24799;SDS011;12897;50.812;4.430;2023-04-03T09:31:42;11.68;;;4.95;;
24799;SDS011;12897;50.812;4.430;2023-04-03T09:34:20;9.23;;;3.90;;
24799;SDS011;12897;50.812;4.430;2023-04-03T09:36:49;11.38;;;3.67;;
24799;SDS011;12897;50.812;4.430;2023-04-03T09:39:15;9.50;;;3.92;;
24799;SDS011;12897;50.812;4.430;2023-04-03T09:42:04;8.60;;;3.92;;
24799;SDS011;12897;50.812;4.430;2023-04-03T09:44:30;6.58;;;3.42;;
24799;SDS011;12897;50.812;4.430;2023-04-03T09:47:41;8.68;;;3.92;;
24799;SDS011;12897;50.812;4.430;2023-04-03T09:49:47;11.15;;;3.83;;
24799;SDS011;12897;50.812;4.430;2023-04-03T09:52:18;10.70;;;3.95;;
24799;SDS011;12897;50.812;4.430;2023-04-03T09:54:51;10.55;;;3.33;;
24799;SDS011;12897;50.812;4.430;2023-04-03T09:57:18;12.13;;;4.25;;
24799;SDS011;12897;50.812;4.430;2023-04-03T09:59:47;11.55;;;3.55;;
24799;SDS011;12897;50.812;4.430;2023-04-03T10:04:56;10.38;;;4.03;;
24799;SDS011;12897;50.812;4.430;2023-04-03T10:07:28;6.85;;;3.40;;
24799;SDS011;12897;50.812;4.430;2023-04-03T10:10:02;8.88;;;3.00;;
24799;SDS011;12897;50.812;4.430;2023-04-03T10:12:31;10.63;;;3.00;;
24799;SDS011;12897;50.812;4.430;2023-04-03T10:14:59;8.95;;;3.75;;
24799;SDS011;12897;50.812;4.430;2023-04-03T10:17:48;8.75;;;2.87;;
24799;SDS011;12897;50.812;4.430;2023-04-03T10:20:23;9.47;;;3.53;;
24799;SDS011;12897;50.812;4.430;2023-04-03T10:23:05;8.55;;;2.90;;
24799;SDS011;12897;50.812;4.430;2023-04-03T10:25:55;11.95;;;2.92;;
24799;SDS011;12897;50.812;4.430;2023-04-03T10:31:29;9.40;;;3.17;;
24799;SDS011;12897;50.812;4.430;2023-04-03T10:34:03;6.45;;;3.22;;
24799;SDS011;12897;50.812;4.430;2023-04-03T10:36:41;7.85;;;3.20;;
24799;SDS011;12897;50.812;4.430;2023-04-03T10:48:02;7.03;;;2.95;;
24799;SDS011;12897;50.812;4.430;2023-04-03T10:50:43;5.97;;;2.75;;
24799;SDS011;12897;50.812;4.430;2023-04-03T10:58:43;6.03;;;2.58;;
24799;SDS011;12897;50.812;4.430;2023-04-03T11:03:52;5.58;;;2.75;;
24799;SDS011;12897;50.812;4.430;2023-04-03T11:09:22;9.10;;;2.90;;
24799;SDS011;12897;50.812;4.430;2023-04-03T11:12:09;8.73;;;3.00;;
24799;SDS011;12897;50.812;4.430;2023-04-03T11:14:44;8.85;;;2.85;;
24799;SDS011;12897;50.812;4.430;2023-04-03T11:19:52;10.93;;;3.45;;
24799;SDS011;12897;50.812;4.430;2023-04-03T11:27:41;10.38;;;2.72;;
24799;SDS011;12897;50.812;4.430;2023-04-03T11:35:59;6.33;;;2.83;;
24799;SDS011;12897;50.812;4.430;2023-04-03T11:38:29;8.38;;;2.52;;
24799;SDS011;12897;50.812;4.430;2023-04-03T11:41:01;10.25;;;2.85;;
24799;SDS011;12897;50.812;4.430;2023-04-03T11:43:31;6.37;;;2.52;;
24799;SDS011;12897;50.812;4.430;2023-04-03T11:46:00;6.67;;;2.33;;
24799;SDS011;12897;50.812;4.430;2023-04-03T11:53:45;7.67;;;2.40;;
24799;SDS011;12897;50.812;4.430;2023-04-03T12:01:50;5.15;;;2.20;;
24799;SDS011;12897;50.812;4.430;2023-04-03T12:04:23;4.97;;;2.17;;
24799;SDS011;12897;50.812;4.430;2023-04-03T12:15:20;6.03;;;2.33;;
24799;SDS011;12897;50.812;4.430;2023-04-03T12:17:49;5.05;;;1.85;;
24799;SDS011;12897;50.812;4.430;2023-04-03T12:21:00;5.33;;;2.08;;
24799;SDS011;12897;50.812;4.430;2023-04-03T12:23:22;5.67;;;2.40;;
24799;SDS011;12897;50.812;4.430;2023-04-03T12:26:01;7.95;;;1.90;;
24799;SDS011;12897;50.812;4.430;2023-04-03T12:28:40;8.93;;;2.10;;
24799;SDS011;12897;50.812;4.430;2023-04-03T12:31:04;4.75;;;1.87;;
24799;SDS011;12897;50.812;4.430;2023-04-03T12:36:31;6.58;;;2.35;;
24799;SDS011;12897;50.812;4.430;2023-04-03T12:44:37;6.57;;;2.20;;
24799;SDS011;12897;50.812;4.430;2023-04-03T12:47:31;3.58;;;1.85;;
24799;SDS011;12897;50.812;4.430;2023-04-03T12:49:52;3.65;;;1.90;;
24799;SDS011;12897;50.812;4.430;2023-04-03T12:52:29;2.52;;;1.42;;
24799;SDS011;12897;50.812;4.430;2023-04-03T12:55:01;7.53;;;1.67;;
24799;SDS011;12897;50.812;4.430;2023-04-03T12:57:30;5.58;;;1.77;;
24799;SDS011;12897;50.812;4.430;2023-04-03T12:59:58;5.65;;;1.87;;
24799;SDS011;12897;50.812;4.430;2023-04-03T13:02:27;6.40;;;1.77;;
24799;SDS011;12897;50.812;4.430;2023-04-03T13:04:59;3.55;;;1.50;;
24799;SDS011;12897;50.812;4.430;2023-04-03T13:07:33;5.15;;;2.08;;
24799;SDS011;12897;50.812;4.430;2023-04-03T13:10:13;3.10;;;2.00;;
24799;SDS011;12897;50.812;4.430;2023-04-03T13:12:54;8.75;;;2.02;;
24799;SDS011;12897;50.812;4.430;2023-04-03T13:15:25;6.30;;;1.95;;
24799;SDS011;12897;50.812;4.430;2023-04-03T13:17:55;3.70;;;1.67;;
24799;SDS011;12897;50.812;4.430;2023-04-03T13:20:30;3.33;;;1.60;;
24799;SDS011;12897;50.812;4.430;2023-04-03T13:23:00;6.12;;;1.87;;
24799;SDS011;12897;50.812;4.430;2023-04-03T13:25:35;2.75;;;1.70;;
24799;SDS011;12897;50.812;4.430;2023-04-03T13:28:05;4.00;;;1.40;;
24799;SDS011;12897;50.812;4.430;2023-04-03T13:30:36;6.45;;;1.62;;
24799;SDS011;12897;50.812;4.430;2023-04-03T13:33:24;3.33;;;1.50;;
24799;SDS011;12897;50.812;4.430;2023-04-03T13:35:55;6.17;;;1.50;;
24799;SDS011;12897;50.812;4.430;2023-04-03T13:38:26;4.10;;;1.55;;
24799;SDS011;12897;50.812;4.430;2023-04-03T13:41:00;3.95;;;1.65;;
24799;SDS011;12897;50.812;4.430;2023-04-03T13:43:32;5.17;;;1.95;;
24799;SDS011;12897;50.812;4.430;2023-04-03T13:48:41;5.10;;;1.70;;
24799;SDS011;12897;50.812;4.430;2023-04-03T13:51:18;4.62;;;1.98;;
24799;SDS011;12897;50.812;4.430;2023-04-03T13:53:55;11.10;;;2.05;;
24799;SDS011;12897;50.812;4.430;2023-04-03T13:56:33;6.67;;;2.00;;
24799;SDS011;12897;50.812;4.430;2023-04-03T14:02:43;6.00;;;2.22;;
24799;SDS011;12897;50.812;4.430;2023-04-03T14:04:32;4.67;;;1.82;;
24799;SDS011;12897;50.812;4.430;2023-04-03T14:07:01;7.60;;;2.45;;
24799;SDS011;12897;50.812;4.430;2023-04-03T14:09:29;9.80;;;2.15;;
24799;SDS011;12897;50.812;4.430;2023-04-03T14:12:02;4.50;;;2.12;;
24799;SDS011;12897;50.812;4.430;2023-04-03T14:14:33;5.55;;;1.90;;
24799;SDS011;12897;50.812;4.430;2023-04-03T14:17:10;3.77;;;1.85;;
24799;SDS011;12897;50.812;4.430;2023-04-03T14:19:50;4.90;;;1.82;;
24799;SDS011;12897;50.812;4.430;2023-04-03T14:22:19;8.73;;;2.17;;
24799;SDS011;12897;50.812;4.430;2023-04-03T14:24:49;7.87;;;2.10;;
24799;SDS011;12897;50.812;4.430;2023-04-03T14:27:33;9.23;;;2.87;;
24799;SDS011;12897;50.812;4.430;2023-04-03T14:29:57;4.12;;;1.45;;
24799;SDS011;12897;50.812;4.430;2023-04-03T14:32:26;4.58;;;1.65;;
24799;SDS011;12897;50.812;4.430;2023-04-03T14:34:57;7.75;;;2.10;;
24799;SDS011;12897;50.812;4.430;2023-04-03T14:37:25;6.87;;;2.45;;
24799;SDS011;12897;50.812;4.430;2023-04-03T14:39:55;3.47;;;1.90;;
24799;SDS011;12897;50.812;4.430;2023-04-03T14:42:26;4.45;;;1.60;;
24799;SDS011;12897;50.812;4.430;2023-04-03T14:44:55;5.80;;;2.10;;
24799;SDS011;12897;50.812;4.430;2023-04-03T14:47:25;8.48;;;2.05;;
24799;SDS011;12897;50.812;4.430;2023-04-03T14:49:54;5.67;;;2.30;;
24799;SDS011;12897;50.812;4.430;2023-04-03T14:52:24;4.40;;;1.90;;
24799;SDS011;12897;50.812;4.430;2023-04-03T14:54:52;5.67;;;1.98;;
24799;SDS011;12897;50.812;4.430;2023-04-03T14:57:21;5.35;;;1.90;;
24799;SDS011;12897;50.812;4.430;2023-04-03T14:59:51;5.35;;;1.82;;
24799;SDS011;12897;50.812;4.430;2023-04-03T15:02:31;6.05;;;2.40;;
24799;SDS011;12897;50.812;4.430;2023-04-03T15:05:00;4.67;;;2.05;;
24799;SDS011;12897;50.812;4.430;2023-04-03T15:07:32;6.15;;;2.12;;
24799;SDS011;12897;50.812;4.430;2023-04-03T15:10:09;6.78;;;2.10;;
24799;SDS011;12897;50.812;4.430;2023-04-03T15:12:31;5.30;;;2.20;;
24799;SDS011;12897;50.812;4.430;2023-04-03T15:14:59;5.55;;;1.87;;
24799;SDS011;12897;50.812;4.430;2023-04-03T15:17:26;2.60;;;1.60;;
24799;SDS011;12897;50.812;4.430;2023-04-03T15:19:54;3.75;;;1.82;;
24799;SDS011;12897;50.812;4.430;2023-04-03T15:22:21;4.80;;;2.08;;
24799;SDS011;12897;50.812;4.430;2023-04-03T15:24:49;5.55;;;2.67;;
24799;SDS011;12897;50.812;4.430;2023-04-03T15:27:16;6.37;;;2.90;;
24799;SDS011;12897;50.812;4.430;2023-04-03T15:29:44;7.12;;;2.55;;
24799;SDS011;12897;50.812;4.430;2023-04-03T15:32:12;6.55;;;2.60;;
24799;SDS011;12897;50.812;4.430;2023-04-03T15:34:40;3.70;;;2.10;;
24799;SDS011;12897;50.812;4.430;2023-04-03T15:37:08;6.10;;;2.12;;
24799;SDS011;12897;50.812;4.430;2023-04-03T15:39:35;5.92;;;2.42;;
24799;SDS011;12897;50.812;4.430;2023-04-03T15:42:03;7.17;;;2.05;;
24799;SDS011;12897;50.812;4.430;2023-04-03T15:44:33;9.63;;;2.15;;
24799;SDS011;12897;50.812;4.430;2023-04-03T15:47:02;9.55;;;1.98;;
24799;SDS011;12897;50.812;4.430;2023-04-03T15:49:30;3.95;;;2.10;;
24799;SDS011;12897;50.812;4.430;2023-04-03T15:51:59;5.33;;;2.00;;
24799;SDS011;12897;50.812;4.430;2023-04-03T15:54:30;5.53;;;2.10;;
24799;SDS011;12897;50.812;4.430;2023-04-03T15:56:58;5.05;;;2.25;;
24799;SDS011;12897;50.812;4.430;2023-04-03T15:59:25;8.80;;;2.35;;
24799;SDS011;12897;50.812;4.430;2023-04-03T16:01:54;8.58;;;2.47;;
24799;SDS011;12897;50.812;4.430;2023-04-03T16:04:22;7.72;;;2.95;;
24799;SDS011;12897;50.812;4.430;2023-04-03T16:06:50;8.68;;;2.60;;
24799;SDS011;12897;50.812;4.430;2023-04-03T16:09:17;10.98;;;3.05;;
24799;SDS011;12897;50.812;4.430;2023-04-03T16:11:45;6.25;;;2.40;;
24799;SDS011;12897;50.812;4.430;2023-04-03T16:14:13;7.45;;;2.70;;
24799;SDS011;12897;50.812;4.430;2023-04-03T16:16:40;6.45;;;2.35;;
24799;SDS011;12897;50.812;4.430;2023-04-03T16:19:08;4.97;;;2.60;;
24799;SDS011;12897;50.812;4.430;2023-04-03T16:21:37;8.13;;;3.52;;
24799;SDS011;12897;50.812;4.430;2023-04-03T16:24:04;7.50;;;3.02;;
24799;SDS011;12897;50.812;4.430;2023-04-03T16:26:32;4.72;;;2.30;;